createdAt,value
2019-01-12T00:01:19.934Z,5.57
2019-01-12T00:03:48.145Z,5.90
2019-01-12T00:06:16.259Z,8.70
2019-01-12T00:08:44.245Z,6.43
2019-01-12T00:11:12.273Z,6.00
2019-01-12T00:13:40.284Z,6.10
2019-01-12T00:16:08.294Z,6.20
2019-01-12T00:18:36.288Z,5.80
2019-01-12T00:21:03.424Z,5.43
2019-01-12T00:23:30.686Z,6.40
2019-01-12T00:25:57.758Z,6.23
2019-01-12T00:28:29.337Z,6.00
2019-01-12T00:30:57.765Z,5.67
2019-01-12T00:33:25.924Z,8.37
2019-01-12T00:35:53.845Z,5.43
2019-01-12T00:38:21.796Z,7.10
2019-01-12T00:40:49.765Z,6.10
2019-01-12T00:43:17.761Z,4.23
2019-01-12T00:45:46.121Z,4.57
2019-01-12T00:48:13.227Z,4.73
2019-01-12T00:50:40.381Z,3.50
2019-01-12T00:53:07.636Z,5.92
2019-01-12T00:55:35.197Z,6.30
2019-01-12T00:58:03.557Z,4.47
2019-01-12T01:00:32.145Z,6.40
2019-01-12T01:03:00.444Z,5.13
2019-01-12T01:05:28.725Z,8.87
2019-01-12T01:07:57.254Z,9.77
2019-01-12T01:10:25.977Z,10.13
2019-01-12T01:12:54.905Z,8.30
2019-01-12T01:15:23.405Z,7.47
2019-01-12T01:17:51.662Z,17.63
2019-01-12T01:20:18.773Z,5.60
2019-01-12T01:22:46.183Z,11.50
2019-01-12T01:25:13.534Z,5.70
2019-01-12T01:27:41.154Z,6.10
2019-01-12T01:30:12.105Z,12.13
2019-01-12T01:32:40.387Z,11.13
2019-01-12T01:35:09.390Z,6.80
2019-01-12T01:37:37.646Z,11.30
2019-01-12T01:40:08.417Z,12.97
2019-01-12T01:42:37.029Z,9.00
2019-01-12T01:45:05.828Z,7.77
2019-01-12T01:47:33.994Z,9.27
2019-01-12T01:50:03.564Z,12.68
2019-01-12T01:52:31.718Z,10.03
2019-01-12T01:54:59.113Z,10.60
2019-01-12T01:57:26.733Z,14.00
2019-01-12T01:59:53.701Z,13.03
2019-01-12T02:02:20.616Z,12.20
2019-01-12T02:04:48.845Z,14.83
2019-01-12T02:07:17.101Z,11.30
2019-01-12T02:09:47.909Z,12.03
2019-01-12T02:12:16.299Z,12.30
2019-01-12T02:14:44.391Z,10.77
2019-01-12T02:17:12.401Z,11.80
2019-01-12T02:19:40.781Z,14.50
2019-01-12T02:22:09.389Z,13.48
2019-01-12T02:24:36.943Z,13.65
2019-01-12T02:27:04.542Z,15.93
2019-01-12T02:29:31.746Z,11.73
2019-01-12T02:31:58.901Z,13.20
2019-01-12T02:34:26.507Z,16.17
2019-01-12T02:36:54.891Z,21.73
2019-01-12T02:39:23.058Z,17.90
2019-01-12T02:41:51.438Z,14.45
2019-01-12T02:44:19.854Z,16.07
2019-01-12T02:46:48.085Z,14.47
2019-01-12T02:49:16.233Z,19.53
2019-01-12T02:51:44.469Z,14.93
2019-01-12T02:54:12.378Z,16.00
2019-01-12T02:56:39.511Z,15.25
2019-01-12T02:59:07.829Z,13.93
2019-01-12T03:01:34.990Z,16.37
2019-01-12T03:04:02.470Z,17.05
2019-01-12T03:06:30.930Z,17.63
2019-01-12T03:08:58.938Z,15.53
2019-01-12T03:11:27.119Z,16.10
2019-01-12T03:13:55.504Z,14.27
2019-01-12T03:16:23.466Z,17.67
2019-01-12T03:18:51.373Z,14.13
2019-01-12T03:21:19.510Z,19.67
2019-01-12T03:23:47.433Z,16.97
2019-01-12T03:26:14.782Z,15.97
2019-01-12T03:28:41.937Z,17.37
2019-01-12T03:31:09.094Z,18.67
2019-01-12T03:33:36.244Z,16.40
2019-01-12T03:36:04.049Z,16.70
2019-01-12T03:38:32.199Z,17.67
2019-01-12T03:41:00.585Z,18.37
2019-01-12T03:43:28.726Z,13.88
2019-01-12T03:45:56.882Z,17.65
2019-01-12T03:48:25.445Z,15.20
2019-01-12T03:50:53.599Z,17.37
2019-01-12T03:53:21.860Z,17.07
2019-01-12T03:55:50.157Z,17.47
2019-01-12T03:58:17.295Z,17.07
2019-01-12T04:00:44.884Z,20.30
2019-01-12T04:03:12.369Z,16.90
2019-01-12T04:05:39.849Z,19.48
2019-01-12T04:08:08.463Z,21.40
2019-01-12T04:10:36.627Z,22.93
2019-01-12T04:13:04.964Z,21.65
2019-01-12T04:15:33.361Z,20.27
2019-01-12T04:18:01.520Z,23.77
2019-01-12T04:20:29.853Z,21.50
2019-01-12T04:22:58.493Z,22.87
2019-01-12T04:25:33.694Z,22.33
2019-01-12T04:27:57.561Z,23.10
2019-01-12T04:30:24.472Z,18.43
2019-01-12T04:32:52.032Z,22.80
2019-01-12T04:35:19.045Z,26.90
2019-01-12T04:37:47.464Z,20.55
2019-01-12T04:40:17.428Z,24.10
2019-01-12T04:42:46.059Z,20.77
2019-01-12T04:45:14.525Z,25.77
2019-01-12T04:47:43.957Z,21.10
2019-01-12T04:50:14.193Z,18.73
2019-01-12T04:52:42.794Z,20.52
2019-01-12T04:55:11.914Z,19.57
2019-01-12T04:57:40.525Z,20.17
2019-01-12T05:00:11.735Z,15.75
2019-01-12T05:02:39.826Z,17.00
2019-01-12T05:05:07.476Z,18.90
2019-01-12T05:07:34.961Z,18.60
2019-01-12T05:10:02.249Z,15.30
2019-01-12T05:12:29.743Z,20.48
2019-01-12T05:14:57.911Z,18.50
2019-01-12T05:17:28.339Z,18.80
2019-01-12T05:19:56.810Z,17.52
2019-01-12T05:22:25.007Z,18.20
2019-01-12T05:24:53.303Z,21.48
2019-01-12T05:27:21.463Z,16.97
2019-01-12T05:29:49.889Z,18.57
2019-01-12T05:32:19.239Z,20.37
2019-01-12T05:34:47.033Z,17.47
2019-01-12T05:37:13.953Z,17.98
2019-01-12T05:39:41.382Z,17.30
2019-01-12T05:42:08.790Z,15.85
2019-01-12T05:44:37.041Z,18.70
2019-01-12T05:47:05.309Z,17.00
2019-01-12T05:49:33.449Z,13.62
2019-01-12T05:52:01.860Z,17.55
2019-01-12T05:54:30.274Z,15.43
2019-01-12T05:57:00.529Z,13.75
2019-01-12T05:59:29.050Z,15.95
2019-01-12T06:01:57.479Z,17.40
2019-01-12T06:04:24.926Z,18.85
2019-01-12T06:06:52.104Z,16.53
2019-01-12T06:09:19.270Z,17.67
2019-01-12T06:11:47.098Z,22.62
2019-01-12T06:14:15.509Z,20.10
2019-01-12T06:16:43.706Z,16.10
2019-01-12T06:19:13.055Z,20.70
2019-01-12T06:21:41.814Z,20.95
2019-01-12T06:24:10.213Z,21.93
2019-01-12T06:26:38.331Z,23.83
2019-01-12T06:29:06.685Z,20.62
2019-01-12T06:31:35.052Z,22.52
2019-01-12T06:34:03.680Z,26.57
2019-01-12T06:36:31.316Z,24.72
2019-01-12T06:38:59.604Z,23.75
2019-01-12T06:41:26.531Z,25.55
2019-01-12T06:43:53.930Z,23.77
2019-01-12T06:46:22.390Z,21.20
2019-01-12T06:48:50.320Z,21.87
2019-01-12T06:51:18.809Z,21.12
2019-01-12T06:53:47.321Z,22.22
2019-01-12T06:56:15.922Z,20.80
2019-01-12T06:58:44.077Z,19.20
2019-01-12T07:01:12.263Z,24.65
2019-01-12T07:03:40.425Z,22.77
2019-01-12T07:06:07.682Z,18.17
2019-01-12T07:08:35.202Z,19.37
2019-01-12T07:11:02.209Z,20.52
2019-01-12T07:13:29.126Z,17.50
2019-01-12T07:15:56.569Z,15.30
2019-01-12T07:18:24.751Z,21.37
2019-01-12T07:20:53.283Z,19.50
2019-01-12T07:23:22.330Z,17.25
2019-01-12T07:25:50.497Z,18.23
2019-01-12T07:28:18.426Z,18.98
2019-01-12T07:30:46.798Z,18.73
2019-01-12T07:33:15.509Z,16.90
2019-01-12T07:35:42.667Z,20.57
2019-01-12T07:38:10.053Z,17.17
2019-01-12T07:40:37.057Z,21.65
2019-01-12T07:43:04.150Z,21.37
2019-01-12T07:45:32.197Z,20.80
2019-01-12T07:48:00.222Z,21.50
2019-01-12T07:50:28.222Z,18.48
2019-01-12T07:52:56.145Z,25.20
2019-01-12T07:55:25.821Z,25.65
2019-01-12T07:57:53.750Z,27.48
2019-01-12T08:00:22.062Z,26.93
2019-01-12T08:02:50.199Z,28.50
2019-01-12T08:05:17.409Z,29.30
2019-01-12T08:07:45.689Z,31.57
2019-01-12T08:10:15.581Z,32.73
2019-01-12T08:12:43.206Z,30.30
2019-01-12T08:15:11.317Z,32.03
2019-01-12T08:17:39.954Z,28.02
2019-01-12T08:20:08.734Z,37.17
2019-01-12T08:22:37.001Z,33.28
2019-01-12T08:25:08.726Z,32.50
2019-01-12T08:27:37.345Z,32.67
2019-01-12T08:30:07.214Z,30.82
2019-01-12T08:32:35.567Z,36.60
2019-01-12T08:35:04.894Z,32.60
2019-01-12T08:37:32.494Z,32.30
2019-01-12T08:39:59.655Z,30.57
2019-01-12T08:42:27.173Z,28.90
2019-01-12T08:44:54.207Z,30.62
2019-01-12T08:47:21.606Z,27.82
2019-01-12T08:49:50.032Z,32.08
2019-01-12T08:52:18.984Z,26.82
2019-01-12T08:54:47.625Z,28.45
2019-01-12T08:57:15.873Z,24.60
2019-01-12T08:59:44.537Z,27.07
2019-01-12T09:02:12.442Z,25.17
2019-01-12T09:04:43.589Z,25.37
2019-01-12T09:07:10.999Z,25.15
2019-01-12T09:09:38.166Z,22.98
2019-01-12T09:12:05.326Z,27.35
2019-01-12T09:14:32.756Z,28.27
2019-01-12T09:17:00.350Z,29.35
2019-01-12T09:19:28.865Z,28.77
2019-01-12T09:21:57.135Z,27.90
2019-01-12T09:24:25.297Z,29.20
2019-01-12T09:26:54.774Z,36.90
2019-01-12T09:29:22.934Z,31.12
2019-01-12T09:31:51.627Z,29.45
2019-01-12T09:34:20.090Z,32.85
2019-01-12T09:36:50.057Z,32.05
2019-01-12T09:39:18.583Z,29.15
2019-01-12T09:41:48.190Z,31.25
2019-01-12T09:44:15.456Z,35.90
2019-01-12T09:46:42.702Z,33.25
2019-01-12T09:49:10.879Z,32.65
2019-01-12T09:51:39.052Z,30.32
2019-01-12T09:54:07.674Z,32.30
2019-01-12T09:56:36.325Z,33.73
2019-01-12T09:59:04.242Z,36.75
2019-01-12T10:01:32.394Z,32.87
2019-01-12T10:04:00.551Z,32.05
2019-01-12T10:06:28.704Z,30.00
2019-01-12T10:08:57.117Z,31.17
2019-01-12T10:11:25.128Z,32.00
2019-01-12T10:13:52.648Z,32.15
2019-01-12T10:16:19.909Z,31.15
2019-01-12T10:18:47.437Z,26.62
2019-01-12T10:21:14.489Z,32.30
2019-01-12T10:23:46.070Z,26.80
2019-01-12T10:26:16.533Z,32.10
2019-01-12T10:28:44.973Z,30.02
2019-01-12T10:31:13.441Z,29.43
2019-01-12T10:33:41.850Z,30.10
2019-01-12T10:36:10.534Z,31.97
2019-01-12T10:38:38.432Z,32.30
2019-01-12T10:41:06.350Z,32.90
2019-01-12T10:43:38.006Z,28.10
2019-01-12T10:46:05.634Z,33.18
2019-01-12T10:48:33.157Z,27.70
2019-01-12T10:51:00.085Z,33.23
2019-01-12T10:53:27.198Z,33.08
2019-01-12T10:55:55.721Z,33.03
2019-01-12T10:58:24.129Z,35.20
2019-01-12T11:00:52.440Z,36.33
2019-01-12T11:03:20.661Z,36.17
2019-01-12T11:05:48.939Z,33.92
2019-01-12T11:08:19.832Z,33.98
2019-01-12T11:10:48.151Z,32.80
2019-01-12T11:13:16.530Z,36.25
2019-01-12T11:15:44.914Z,37.00
2019-01-12T11:18:14.749Z,37.78
2019-01-12T11:20:42.159Z,39.05
2019-01-12T11:23:09.430Z,41.60
2019-01-12T11:25:42.750Z,38.65
2019-01-12T11:28:06.028Z,37.25
2019-01-12T11:30:34.486Z,44.93
2019-01-12T11:33:02.638Z,41.33
2019-01-12T11:35:31.166Z,38.90
2019-01-12T11:37:59.522Z,40.75
2019-01-12T11:40:28.004Z,39.55
2019-01-12T11:42:56.379Z,39.15
2019-01-12T11:45:24.502Z,37.03
2019-01-12T11:47:57.201Z,34.73
2019-01-12T11:50:24.633Z,34.15
2019-01-12T11:52:51.923Z,37.58
2019-01-12T11:55:19.052Z,38.30
2019-01-12T11:57:46.494Z,34.55
2019-01-12T12:00:22.082Z,32.93
2019-01-12T12:02:50.714Z,31.87
2019-01-12T12:05:19.273Z,36.60
2019-01-12T12:07:48.039Z,37.13
2019-01-12T12:10:16.760Z,29.72
2019-01-12T12:12:45.132Z,34.23
2019-01-12T12:15:13.853Z,32.60
2019-01-12T12:17:42.469Z,32.88
2019-01-12T12:20:14.041Z,29.65
2019-01-12T12:22:42.667Z,30.10
2019-01-12T12:25:10.601Z,30.95
2019-01-12T12:27:37.639Z,31.57
2019-01-12T12:30:07.567Z,31.00
2019-01-12T12:32:34.992Z,30.45
2019-01-12T12:35:02.416Z,30.15
2019-01-12T12:37:32.603Z,28.45
2019-01-12T12:40:01.975Z,28.50
2019-01-12T12:42:30.458Z,25.82
2019-01-12T12:45:02.334Z,30.43
2019-01-12T12:47:30.629Z,28.85
2019-01-12T12:49:58.782Z,32.93
2019-01-12T12:52:29.961Z,36.85
2019-01-12T12:54:59.594Z,32.48
2019-01-12T12:57:32.856Z,29.10
2019-01-12T12:59:57.094Z,32.45
2019-01-12T13:02:24.590Z,32.10
2019-01-12T13:04:53.174Z,29.67
2019-01-12T13:07:21.261Z,29.90
2019-01-12T13:09:52.627Z,34.67
2019-01-12T13:12:20.325Z,33.15
2019-01-12T13:14:48.561Z,30.17
2019-01-12T13:17:16.838Z,28.40
2019-01-12T13:19:52.098Z,30.55
2019-01-12T13:22:20.117Z,31.05
2019-01-12T13:24:48.289Z,23.92
2019-01-12T13:27:16.812Z,29.45
2019-01-12T13:29:45.812Z,30.20
2019-01-12T13:32:16.414Z,27.30
2019-01-12T13:34:45.054Z,25.57
2019-01-12T13:37:13.213Z,25.90
2019-01-12T13:39:41.421Z,25.72
2019-01-12T13:42:10.044Z,24.18
2019-01-12T13:44:42.399Z,24.23
2019-01-12T13:47:13.233Z,22.45
2019-01-12T13:49:42.070Z,24.70
2019-01-12T13:52:11.022Z,20.97
2019-01-12T13:54:45.677Z,24.75
2019-01-12T13:57:15.201Z,24.60
2019-01-12T13:59:44.118Z,21.70
2019-01-12T14:02:28.752Z,26.02
2019-01-12T14:04:57.189Z,21.85
2019-01-12T14:07:25.524Z,19.73
2019-01-12T14:09:53.414Z,18.70
2019-01-12T14:12:32.549Z,23.57
2019-01-12T14:15:00.592Z,25.32
2019-01-12T14:17:29.215Z,22.00
2019-01-12T14:19:57.118Z,23.32
2019-01-12T14:22:25.819Z,19.23
2019-01-12T14:24:56.061Z,23.30
2019-01-12T14:27:24.829Z,24.05
2019-01-12T14:29:53.258Z,25.08
2019-01-12T14:32:21.577Z,22.63
2019-01-12T14:34:50.765Z,29.20
2019-01-12T14:37:32.208Z,27.07
2019-01-12T14:40:01.780Z,23.70
2019-01-12T14:42:38.552Z,24.60
2019-01-12T14:45:18.090Z,23.42
2019-01-12T14:47:45.473Z,26.65
2019-01-12T14:50:19.955Z,27.17
2019-01-12T14:52:47.338Z,25.08
2019-01-12T14:55:15.123Z,28.13
2019-01-12T14:57:44.020Z,26.23
2019-01-12T15:00:15.093Z,25.37
2019-01-12T15:02:47.598Z,34.33
2019-01-12T15:05:18.104Z,25.50
2019-01-12T15:07:46.599Z,21.97
2019-01-12T15:10:16.382Z,22.10
2019-01-12T15:12:45.149Z,16.90
2019-01-12T15:15:15.010Z,15.63
2019-01-12T15:17:43.361Z,21.20
2019-01-12T15:20:25.654Z,18.43
2019-01-12T15:22:55.793Z,19.13
2019-01-12T15:25:23.354Z,17.10
2019-01-12T15:27:51.044Z,15.97
2019-01-12T15:30:23.313Z,16.57
2019-01-12T15:32:51.957Z,16.10
2019-01-12T15:35:22.181Z,13.97
2019-01-12T15:37:51.075Z,17.40
2019-01-12T15:40:21.234Z,14.70
2019-01-12T15:42:49.626Z,14.20
2019-01-12T15:45:23.874Z,15.37
2019-01-12T15:47:52.350Z,18.57
2019-01-12T15:50:22.511Z,17.50
2019-01-12T15:52:51.038Z,17.37
2019-01-12T15:55:22.151Z,20.33
2019-01-12T15:57:51.106Z,20.37
2019-01-12T16:00:20.478Z,19.07
2019-01-12T16:02:48.079Z,19.23
2019-01-12T16:05:15.438Z,23.50
2019-01-12T16:07:42.454Z,20.37
2019-01-12T16:10:17.297Z,20.30
2019-01-12T16:12:45.401Z,23.77
2019-01-12T16:15:16.755Z,22.30
2019-01-12T16:17:45.227Z,22.55
2019-01-12T16:20:21.992Z,18.87
2019-01-12T16:22:50.385Z,18.30
2019-01-12T16:25:18.766Z,18.20
2019-01-12T16:27:47.526Z,18.30
2019-01-12T16:30:20.713Z,18.77
2019-01-12T16:32:48.240Z,15.60
2019-01-12T16:35:15.895Z,15.87
2019-01-12T16:37:43.649Z,16.00
2019-01-12T16:40:15.182Z,13.65
2019-01-12T16:42:46.458Z,11.87
2019-01-12T16:45:15.593Z,11.90
2019-01-12T16:47:44.095Z,10.27
2019-01-12T16:50:12.713Z,12.10
2019-01-12T16:52:41.792Z,12.13
2019-01-12T16:55:17.593Z,14.50
2019-01-12T16:57:58.065Z,14.20
2019-01-12T17:00:32.140Z,16.87
2019-01-12T17:03:00.181Z,17.10
2019-01-12T17:05:27.534Z,19.60
2019-01-12T17:07:54.645Z,20.50
2019-01-12T17:10:21.770Z,20.30
2019-01-12T17:12:49.896Z,21.57
2019-01-12T17:15:20.711Z,22.97
2019-01-12T17:17:48.753Z,20.47
2019-01-12T17:20:19.366Z,18.80
2019-01-12T17:22:48.369Z,20.30
2019-01-12T17:25:16.514Z,26.90
2019-01-12T17:27:47.564Z,21.00
2019-01-12T17:30:18.975Z,20.73
2019-01-12T17:32:53.500Z,21.53
2019-01-12T17:35:22.624Z,19.37
2019-01-12T17:37:53.610Z,18.97
2019-01-12T17:40:21.882Z,18.80
2019-01-12T17:42:49.158Z,16.77
2019-01-12T17:45:18.200Z,19.10
2019-01-12T17:47:46.319Z,21.40
2019-01-12T17:50:16.965Z,17.60
2019-01-12T17:52:45.102Z,12.07
2019-01-12T17:55:15.056Z,12.53
2019-01-12T17:57:43.077Z,9.93
2019-01-12T18:00:30.674Z,9.83
2019-01-12T18:02:58.794Z,9.63
2019-01-12T18:05:27.517Z,8.73
2019-01-12T18:07:59.086Z,11.10
2019-01-12T18:10:27.083Z,9.93
2019-01-12T18:12:58.356Z,14.43
2019-01-12T18:15:25.263Z,14.30
2019-01-12T18:17:52.197Z,13.40
2019-01-12T18:20:22.475Z,14.57
2019-01-12T18:22:50.394Z,17.67
2019-01-12T18:25:18.402Z,18.30
2019-01-12T18:27:47.404Z,19.43
2019-01-12T18:30:17.567Z,19.57
2019-01-12T18:32:46.585Z,16.37
2019-01-12T18:35:14.810Z,21.17
2019-01-12T18:37:41.873Z,16.13
2019-01-12T18:40:11.729Z,21.03
2019-01-12T18:42:39.228Z,16.57
2019-01-12T18:45:11.882Z,21.83
2019-01-12T18:47:40.046Z,21.20
2019-01-12T18:50:11.139Z,18.17
2019-01-12T18:52:39.254Z,16.57
2019-01-12T18:55:08.422Z,17.00
2019-01-12T18:57:37.914Z,15.90
2019-01-12T19:00:10.410Z,17.13
2019-01-12T19:02:38.310Z,16.33
2019-01-12T19:05:06.421Z,13.53
2019-01-12T19:07:33.436Z,15.40
2019-01-12T19:10:03.884Z,14.67
2019-01-12T19:12:31.809Z,14.20
2019-01-12T19:15:04.313Z,16.80
2019-01-12T19:17:31.378Z,10.97
2019-01-12T19:19:59.306Z,15.67
2019-01-12T19:22:27.418Z,12.17
2019-01-12T19:24:55.985Z,14.90
2019-01-12T19:27:23.890Z,14.00
2019-01-12T19:29:51.874Z,14.40
2019-01-12T19:32:19.796Z,16.23
2019-01-12T19:34:47.809Z,13.67
2019-01-12T19:37:19.598Z,14.10
2019-01-12T19:39:46.683Z,14.20
2019-01-12T19:42:13.609Z,16.70
2019-01-12T19:44:40.614Z,18.37
2019-01-12T19:47:07.957Z,21.67
2019-01-12T19:49:36.187Z,22.60
2019-01-12T19:52:05.222Z,20.37
2019-01-12T19:54:33.346Z,20.50
2019-01-12T19:57:01.363Z,23.47
2019-01-12T19:59:29.385Z,20.77
2019-01-12T20:01:57.731Z,15.97
2019-01-12T20:04:30.706Z,21.33
2019-01-12T20:06:58.726Z,18.20
2019-01-12T20:09:26.750Z,21.50
2019-01-12T20:11:54.657Z,15.73
2019-01-12T20:14:22.742Z,20.97
2019-01-12T20:16:49.767Z,14.67
2019-01-12T20:19:19.194Z,16.02
2019-01-12T20:21:46.314Z,17.17
2019-01-12T20:24:13.872Z,15.47
2019-01-12T20:26:40.803Z,11.57
2019-01-12T20:29:08.822Z,17.17
2019-01-12T20:32:05.100Z,12.80
2019-01-12T20:34:42.634Z,11.30
2019-01-12T20:37:47.118Z,16.83
2019-01-12T20:40:57.832Z,12.00
2019-01-12T20:44:09.576Z,14.00
2019-01-12T20:46:47.301Z,12.10
2019-01-12T20:49:37.610Z,11.07
2019-01-12T20:52:27.894Z,9.00
2019-01-12T20:55:35.786Z,9.80
2019-01-12T20:58:41.062Z,13.10
2019-01-12T21:01:31.109Z,11.75
2019-01-12T21:04:23.366Z,8.40
2019-01-12T21:07:29.231Z,13.83
2019-01-12T21:10:36.762Z,17.33
2019-01-12T21:13:45.230Z,11.97
2019-01-12T21:16:20.714Z,12.47
2019-01-12T21:18:48.837Z,16.93
2019-01-12T21:21:16.981Z,19.60
2019-01-12T21:23:49.114Z,13.53
2019-01-12T21:26:17.134Z,13.00
2019-01-12T21:28:45.066Z,15.30
2019-01-12T21:31:11.969Z,16.87
2019-01-12T21:33:39.118Z,21.53
2019-01-12T21:36:06.228Z,18.37
2019-01-12T21:38:39.298Z,22.20
2019-01-12T21:41:06.418Z,30.17
2019-01-12T21:43:34.493Z,18.20
2019-01-12T21:46:03.014Z,22.10
2019-01-12T21:48:31.430Z,23.83
2019-01-12T21:51:01.567Z,18.90
2019-01-12T21:53:29.529Z,20.40
2019-01-12T21:55:57.547Z,20.00
2019-01-12T21:58:25.606Z,17.95
2019-01-12T22:00:53.625Z,16.90
2019-01-12T22:03:21.088Z,15.43
2019-01-12T22:05:53.284Z,21.47
2019-01-12T22:08:20.202Z,16.70
2019-01-12T22:10:47.120Z,13.17
2019-01-12T22:13:14.106Z,12.03
2019-01-12T22:15:42.135Z,15.53
2019-01-12T22:18:13.745Z,13.07
2019-01-12T22:20:41.772Z,16.63
2019-01-12T22:23:09.798Z,12.87
2019-01-12T22:25:37.917Z,18.03
2019-01-12T22:28:06.051Z,14.65
2019-01-12T22:30:34.408Z,18.63
2019-01-12T22:33:04.294Z,15.27
2019-01-12T22:35:32.410Z,17.60
2019-01-12T22:37:59.327Z,13.90
2019-01-12T22:40:26.453Z,22.60
2019-01-12T22:42:53.458Z,18.60
2019-01-12T22:45:20.379Z,15.27
2019-01-12T22:47:51.255Z,17.30
2019-01-12T22:50:19.279Z,21.57
2019-01-12T22:52:47.401Z,18.50
2019-01-12T22:55:15.403Z,22.40
2019-01-12T22:57:43.519Z,24.47
2019-01-12T23:00:36.698Z,27.30
2019-01-12T23:03:03.813Z,23.00
2019-01-12T23:05:31.003Z,23.80
2019-01-12T23:08:01.885Z,22.83
2019-01-12T23:10:30.278Z,20.30
2019-01-12T23:12:58.815Z,22.27
2019-01-12T23:15:27.230Z,26.03
2019-01-12T23:17:55.508Z,19.83
2019-01-12T23:20:28.573Z,15.67
2019-01-12T23:22:56.960Z,18.70
2019-01-12T23:25:25.204Z,18.90
2019-01-12T23:27:52.479Z,15.50
2019-01-12T23:30:21.085Z,16.77
2019-01-12T23:32:52.598Z,24.80
2019-01-12T23:35:19.873Z,20.23
2019-01-12T23:37:47.238Z,21.10
2019-01-12T23:40:15.005Z,16.53
2019-01-12T23:42:43.260Z,16.13
2019-01-12T23:45:16.621Z,20.47
2019-01-12T23:47:44.794Z,21.87
2019-01-12T23:50:13.453Z,18.97
2019-01-12T23:52:41.798Z,20.37
2019-01-12T23:55:10.424Z,18.33
2019-01-12T23:57:43.125Z,22.60
